Time;durP1;ratioP1;P1;durP2;ratioP2;P2;SDS_P1;SDS_P2;PMS_P1;PMS_P2;Temp;Humidity;BMP_temperature;BMP_pressure;BME280_temperature;BME280_humidity;BME280_pressure;Samples;Min_cycle;Max_cycle;Signal;HPM_P1;HPM_P2
2022/07/26 00:00:11;;;;;;;7.13;2.95;;;;;;;19.43;63.87;101266.16;4988642;28;20022;-65
2022/07/26 00:02:36;;;;;;;4.47;2.00;;;;;;;19.38;63.81;101268.84;4968754;28;20034;-65
2022/07/26 00:05:02;;;;;;;5.85;2.40;;;;;;;19.36;64.10;101278.53;4988198;28;20022;-65
2022/07/26 00:07:27;;;;;;;4.60;2.08;;;;;;;19.35;64.15;101276.78;4987688;28;20026;-65
2022/07/26 00:09:53;;;;;;;7.15;2.53;;;;;;;19.34;64.45;101282.09;4988966;28;20512;-65
2022/07/26 00:12:18;;;;;;;6.47;2.10;;;;;;;19.34;64.21;101271.50;4988802;28;20466;-65
2022/07/26 00:14:43;;;;;;;5.82;2.42;;;;;;;19.34;64.60;101274.16;4991897;28;20044;-65
2022/07/26 00:17:09;;;;;;;7.03;2.40;;;;;;;19.34;64.60;101274.16;4987663;28;20022;-65
2022/07/26 00:19:34;;;;;;;7.32;2.58;;;;;;;19.28;64.77;101265.38;4987155;28;20031;-65
2022/07/26 00:24:43;;;;;;;5.22;2.38;;;;;;;19.27;64.67;101271.53;4989054;28;20405;-65
2022/07/26 00:27:08;;;;;;;6.50;2.38;;;;;;;19.25;65.09;101275.09;4989759;28;20026;-65
2022/07/26 00:29:34;;;;;;;6.80;2.40;;;;;;;19.24;65.06;101276.84;4986624;28;20062;-65
2022/07/26 00:31:59;;;;;;;6.65;2.30;;;;;;;19.21;65.25;101276.84;4990469;28;20054;-65
2022/07/26 00:34:25;;;;;;;6.80;2.40;;;;;;;19.21;64.88;101282.13;4989382;28;20056;-65
2022/07/26 00:36:50;;;;;;;4.93;2.30;;;;;;;19.21;64.85;101289.19;4986969;28;20497;-65
2022/07/26 00:39:15;;;;;;;8.27;2.47;;;;;;;19.19;64.96;101283.91;4981172;28;20468;-65
2022/07/26 00:41:41;;;;;;;5.65;2.25;;;;;;;19.17;65.15;101285.69;4987503;28;20768;-65
2022/07/26 00:44:06;;;;;;;7.78;2.20;;;;;;;19.15;65.24;101281.28;4986109;28;20026;-65
2022/07/26 00:46:32;;;;;;;7.43;2.22;;;;;;;19.14;65.08;101284.81;4987786;28;20030;-65
2022/07/26 00:48:57;;;;;;;6.15;2.20;;;;;;;19.10;65.15;101286.59;4984877;28;20421;-65
2022/07/26 00:51:22;;;;;;;5.97;2.20;;;;;;;19.09;65.29;101295.41;4988850;28;20532;-65
2022/07/26 00:53:48;;;;;;;6.70;2.28;;;;;;;19.06;65.54;101283.09;4989911;28;20117;-65
2022/07/26 00:56:14;;;;;;;5.55;2.40;;;;;;;19.04;65.69;101286.63;4987596;28;20034;-65
2022/07/26 00:58:41;;;;;;;7.15;2.42;;;;;;;19.01;66.10;101286.66;4986606;28;20030;-65
2022/07/26 01:01:07;;;;;;;6.97;2.45;;;;;;;19.00;66.03;101284.88;4986480;28;20049;-65
2022/07/26 01:03:32;;;;;;;5.05;2.17;;;;;;;18.96;65.63;101280.50;4983856;28;20038;-65
2022/07/26 01:05:58;;;;;;;6.05;2.00;;;;;;;18.93;66.15;101278.75;4986719;28;20101;-65
2022/07/26 01:08:23;;;;;;;7.72;2.42;;;;;;;18.93;66.60;101279.63;4988889;28;20073;-65
2022/07/26 01:10:49;;;;;;;7.18;2.40;;;;;;;18.91;66.31;101272.59;4988425;28;20026;-65
2022/07/26 01:13:19;;;;;;;8.77;2.47;;;;;;;18.86;66.89;101277.91;4986400;28;20018;-65
2022/07/26 01:15:45;;;;;;;7.70;2.47;;;;;;;18.73;67.66;101284.94;4982032;28;20034;-65
2022/07/26 01:18:10;;;;;;;6.82;2.25;;;;;;;18.74;67.28;101283.16;4989306;28;20405;-65
2022/07/26 01:20:35;;;;;;;5.78;2.40;;;;;;;18.71;67.46;101272.63;4989773;28;20035;-65
2022/07/26 01:23:01;;;;;;;7.18;2.33;;;;;;;18.71;67.80;101272.63;4986436;28;20026;-65
2022/07/26 01:25:31;;;;;;;7.53;2.42;;;;;;;18.70;67.43;101271.75;4988464;28;20034;-65
2022/07/26 01:27:57;;;;;;;10.00;2.70;;;;;;;18.66;68.25;101272.66;4986166;28;20034;-65
2022/07/26 01:30:22;;;;;;;7.65;2.67;;;;;;;18.71;68.03;101272.63;4985004;28;20449;-65
2022/07/26 01:32:48;;;;;;;8.63;2.63;;;;;;;18.74;68.40;101269.97;4987665;28;20022;-65
2022/07/26 01:35:13;;;;;;;6.63;2.60;;;;;;;18.72;68.53;101264.69;4984095;28;20114;-65
2022/07/26 01:37:38;;;;;;;8.27;2.28;;;;;;;18.74;68.66;101260.31;4990302;28;20026;-65
2022/07/26 01:40:04;;;;;;;9.38;2.90;;;;;;;18.74;68.99;101264.69;4987704;28;20100;-65
2022/07/26 01:42:30;;;;;;;7.65;2.50;;;;;;;18.75;69.14;101271.75;4983353;28;20160;-65
2022/07/26 01:44:55;;;;;;;8.07;2.80;;;;;;;18.75;69.17;101267.31;4987030;28;20030;-65
2022/07/26 01:47:20;;;;;;;7.95;2.90;;;;;;;18.73;69.08;101270.88;4988031;28;20174;-65
2022/07/26 01:49:46;;;;;;;8.57;2.70;;;;;;;18.74;69.06;101272.59;4989493;28;20074;-65
2022/07/26 01:52:11;;;;;;;6.43;2.85;;;;;;;18.73;68.92;101274.38;4987265;28;20389;-65
2022/07/26 01:54:36;;;;;;;9.50;3.10;;;;;;;18.75;68.75;101277.88;4989427;28;20041;-65
2022/07/26 01:57:02;;;;;;;10.73;3.70;;;;;;;18.75;69.84;101274.38;4984722;28;20029;-60
2022/07/26 01:59:27;;;;;;;11.55;3.08;;;;;;;18.74;69.92;101275.25;4987358;28;20513;-59
2022/07/26 02:01:52;;;;;;;9.40;3.50;;;;;;;18.75;69.58;101279.66;4986977;28;20037;-59
2022/07/26 02:07:01;;;;;;;9.30;3.38;;;;;;;18.72;70.06;101283.19;4986184;28;20049;-59
2022/07/26 02:09:26;;;;;;;8.43;3.30;;;;;;;18.73;70.11;101284.06;4986049;28;20034;-60
2022/07/26 02:11:52;;;;;;;11.75;3.50;;;;;;;18.72;69.97;101279.66;4987497;28;20114;-60
2022/07/26 02:14:17;;;;;;;11.15;3.83;;;;;;;18.70;70.53;101284.09;4981865;28;20127;-60
2022/07/26 02:16:42;;;;;;;10.60;3.80;;;;;;;18.70;70.08;101282.31;4988115;28;20555;-59
2022/07/26 02:19:08;;;;;;;11.10;3.70;;;;;;;18.69;70.29;101285.84;4970735;28;20026;-60
2022/07/26 02:21:33;;;;;;;10.18;4.00;;;;;;;18.65;71.23;101278.78;4987867;28;20034;-60
2022/07/26 02:23:59;;;;;;;9.60;3.88;;;;;;;18.61;71.31;101279.72;4983756;28;20034;-60
2022/07/26 02:26:24;;;;;;;11.75;4.00;;;;;;;18.59;70.63;101277.06;4987848;28;20031;-65
2022/07/26 02:28:49;;;;;;;7.55;3.72;;;;;;;18.56;71.28;101284.13;4987919;28;20030;-65
2022/07/26 02:31:15;;;;;;;12.07;4.13;;;;;;;18.50;71.80;101287.66;4988783;28;20042;-65
2022/07/26 02:33:40;;;;;;;11.88;4.50;;;;;;;18.47;72.08;101292.06;4984288;28;20022;-65
2022/07/26 02:36:05;;;;;;;9.18;3.78;;;;;;;18.49;71.75;101287.66;4987890;28;20501;-65
2022/07/26 02:38:31;;;;;;;9.45;3.80;;;;;;;18.49;71.73;101285.88;4989053;28;20034;-65
2022/07/26 02:41:11;;;;;;;14.52;4.65;;;;;;;18.47;72.61;101303.50;4955032;28;20057;-65
2022/07/26 02:43:36;;;;;;;11.18;4.22;;;;;;;18.49;72.04;101295.56;4963835;28;20034;-65
2022/07/26 02:46:02;;;;;;;11.38;4.80;;;;;;;18.47;72.31;101292.94;4966387;28;20034;-65
2022/07/26 02:48:27;;;;;;;9.48;4.25;;;;;;;18.47;72.68;101297.34;4988654;28;20041;-65
2022/07/26 02:50:52;;;;;;;11.75;4.18;;;;;;;18.47;72.51;101302.63;4987461;28;20448;-65
2022/07/26 02:53:18;;;;;;;10.10;4.63;;;;;;;18.47;72.34;101302.63;4988140;28;20374;-65
2022/07/26 02:55:43;;;;;;;12.93;4.65;;;;;;;18.46;72.10;101301.72;4987154;28;20030;-65
2022/07/26 02:58:08;;;;;;;11.07;4.47;;;;;;;18.48;72.50;101307.91;4982693;28;20023;-65
2022/07/26 03:00:34;;;;;;;12.15;4.45;;;;;;;18.49;72.34;101308.75;4988811;28;20401;-65
2022/07/26 03:02:59;;;;;;;11.40;4.47;;;;;;;18.48;72.64;101310.53;4990520;28;20034;-65
2022/07/26 03:05:25;;;;;;;13.50;4.50;;;;;;;18.49;72.15;101314.03;4992888;28;20027;-65
2022/07/26 03:07:50;;;;;;;12.50;4.80;;;;;;;18.49;72.70;101312.25;4974497;28;20080;-65
2022/07/26 03:10:15;;;;;;;13.60;5.25;;;;;;;18.49;72.46;101312.25;4989441;28;20027;-65
2022/07/26 03:12:41;;;;;;;13.15;4.90;;;;;;;18.50;73.28;101311.41;4990831;28;20026;-65
2022/07/26 03:15:07;;;;;;;13.10;4.72;;;;;;;18.45;72.97;101315.81;4973416;28;20126;-65
2022/07/26 03:17:33;;;;;;;15.00;5.32;;;;;;;18.40;73.80;101314.94;4992000;28;20027;-65
2022/07/26 03:19:58;;;;;;;12.15;5.03;;;;;;;18.36;73.58;101324.59;4985382;28;20042;-65
2022/07/26 03:22:24;;;;;;;12.65;4.93;;;;;;;18.32;74.08;101322.88;4986530;28;20040;-65
2022/07/26 03:24:49;;;;;;;12.40;5.18;;;;;;;18.32;73.73;101329.88;4992252;28;20069;-65
2022/07/26 03:27:14;;;;;;;14.85;5.00;;;;;;;18.33;73.82;101327.25;4987376;28;20030;-65
2022/07/26 03:29:39;;;;;;;14.43;5.05;;;;;;;18.28;74.58;101326.38;4991311;28;20114;-65
2022/07/26 03:32:05;;;;;;;10.25;4.60;;;;;;;18.28;74.22;101333.41;4990911;28;20560;-65
2022/07/26 03:34:31;;;;;;;13.82;5.03;;;;;;;18.30;74.54;101336.94;4992413;28;20045;-65
2022/07/26 03:36:56;;;;;;;14.98;5.53;;;;;;;18.30;74.03;101335.16;4987221;28;20019;-65
2022/07/26 03:39:21;;;;;;;15.35;5.35;;;;;;;18.32;74.52;101337.78;4988690;28;20042;-65
2022/07/26 03:41:47;;;;;;;10.82;4.55;;;;;;;18.31;74.17;101344.84;4989944;28;20461;-65
2022/07/26 03:44:12;;;;;;;16.13;5.30;;;;;;;18.32;74.37;101343.06;4990839;28;20038;-65
2022/07/26 03:46:37;;;;;;;13.48;5.22;;;;;;;18.34;74.13;101349.25;4990119;28;20022;-65
2022/07/26 03:49:02;;;;;;;14.02;5.53;;;;;;;18.35;73.71;101346.59;4985023;28;20062;-65
2022/07/26 03:51:28;;;;;;;11.27;5.38;;;;;;;18.34;74.24;101343.97;4990783;28;20042;-65
2022/07/26 03:53:53;;;;;;;14.88;5.00;;;;;;;18.35;73.92;101346.59;4990478;28;20019;-65
2022/07/26 03:56:27;;;;;;;16.88;5.30;;;;;;;18.28;75.26;101344.84;4989665;28;20030;-65
2022/07/26 03:58:54;;;;;;;12.38;5.43;;;;;;;18.24;74.71;101351.00;4985282;28;20064;-65
2022/07/26 04:01:20;;;;;;;14.10;5.15;;;;;;;18.22;75.08;101353.63;4989491;28;20031;-65
2022/07/26 04:03:45;;;;;;;14.63;5.35;;;;;;;18.24;74.84;101357.13;4991383;28;20030;-65
2022/07/26 04:06:10;;;;;;;13.32;4.95;;;;;;;18.27;75.12;101358.91;4988553;28;20528;-65
2022/07/26 04:08:35;;;;;;;11.95;5.28;;;;;;;18.25;75.22;101353.63;4986437;28;20042;-65
2022/07/26 04:11:01;;;;;;;14.27;4.65;;;;;;;18.29;75.02;101359.78;4990112;28;20118;-65
2022/07/26 04:13:26;;;;;;;15.63;5.47;;;;;;;18.32;74.73;101361.53;4986456;28;20023;-65
2022/07/26 04:15:52;;;;;;;14.10;5.43;;;;;;;18.30;75.31;101350.13;4990632;28;20109;-65
2022/07/26 04:18:17;;;;;;;13.27;5.75;;;;;;;18.25;75.92;101348.34;4990300;28;20444;-65
2022/07/26 04:20:42;;;;;;;13.65;5.40;;;;;;;18.25;75.25;101348.34;4988110;28;21713;-65
2022/07/26 04:23:08;;;;;;;15.15;5.80;;;;;;;18.27;74.14;101355.41;4986809;28;20073;-65
2022/07/26 04:25:33;;;;;;;14.18;5.65;;;;;;;18.28;75.29;101359.78;4991434;28;20026;-65
2022/07/26 04:28:00;;;;;;;13.48;5.75;;;;;;;18.29;75.31;101362.41;4989178;28;20116;-59
2022/07/26 04:30:25;;;;;;;14.77;5.82;;;;;;;18.31;75.13;101360.66;4991474;28;20036;-60
2022/07/26 04:32:50;;;;;;;14.88;6.22;;;;;;;18.32;75.53;101366.81;4989934;28;20676;-60
2022/07/26 04:35:16;;;;;;;15.55;6.18;;;;;;;18.32;75.18;101369.44;4987351;28;20078;-59
2022/07/26 04:37:42;;;;;;;17.73;6.25;;;;;;;18.31;75.00;101365.06;4989326;28;20092;-60
2022/07/26 04:40:09;;;;;;;15.38;5.93;;;;;;;18.32;75.22;101373.00;4988831;28;20053;-59
2022/07/26 04:42:35;;;;;;;12.07;5.72;;;;;;;18.31;75.41;101371.22;4985502;28;20044;-60
2022/07/26 04:45:04;;;;;;;13.95;5.82;;;;;;;18.31;75.43;101367.72;4987894;28;20402;-60
2022/07/26 04:47:30;;;;;;;;;;;;;;;18.36;73.64;101374.72;4989966;28;20030;-59
2022/07/26 04:49:55;;;;;;;18.30;6.60;;;;;;;18.32;75.64;101373.00;4973559;28;20007;-59
2022/07/26 04:52:20;;;;;;;17.00;5.70;;;;;;;18.34;75.05;101365.06;4988399;28;20387;-59
2022/07/26 04:54:46;;;;;;;15.07;5.90;;;;;;;18.35;75.46;101377.38;4989767;28;20593;-60
2022/07/26 04:57:12;;;;;;;16.52;6.05;;;;;;;18.35;75.40;101377.38;4988953;28;20413;-60
2022/07/26 04:59:37;;;;;;;11.77;5.65;;;;;;;18.35;75.59;101380.00;4988656;28;20081;-60
2022/07/26 05:02:03;;;;;;;12.82;6.05;;;;;;;18.35;75.25;101387.91;4990670;28;20066;-60
2022/07/26 05:04:28;;;;;;;18.02;5.93;;;;;;;18.35;75.22;101387.91;4984203;28;20030;-60
2022/07/26 05:06:53;;;;;;;17.75;5.88;;;;;;;18.33;75.75;101387.06;4989602;28;20030;-65
2022/07/26 05:09:19;;;;;;;14.95;6.32;;;;;;;18.34;75.17;101391.47;4987417;28;20530;-65
2022/07/26 05:11:44;;;;;;;16.52;6.20;;;;;;;18.33;75.86;101384.41;4987602;28;20154;-64
2022/07/26 05:14:09;;;;;;;12.07;5.93;;;;;;;18.34;74.97;101383.53;4986958;28;20034;-65
2022/07/26 05:16:34;;;;;;;15.13;6.03;;;;;;;18.30;76.50;101387.91;4981382;28;20129;-65
2022/07/26 05:19:00;;;;;;;17.08;5.78;;;;;;;18.29;76.04;101393.19;4988359;28;20656;-65
2022/07/26 05:21:26;;;;;;;19.05;6.63;;;;;;;18.25;76.82;101398.47;4989938;28;20037;-65
2022/07/26 05:23:52;;;;;;;14.68;5.72;;;;;;;18.28;76.00;101404.63;4986603;28;20033;-65
2022/07/26 05:26:18;;;;;;;13.43;5.95;;;;;;;18.29;75.97;101403.75;4984832;28;20038;-65
2022/07/26 05:28:43;;;;;;;16.13;6.28;;;;;;;18.31;75.75;101409.94;4989031;28;20105;-65
2022/07/26 05:31:08;;;;;;;15.15;6.22;;;;;;;18.30;76.34;101410.78;4987742;28;20037;-65
2022/07/26 05:33:34;;;;;;;14.70;6.13;;;;;;;18.28;76.09;101417.81;4985134;28;20033;-65
2022/07/26 05:35:59;;;;;;;15.95;7.03;;;;;;;18.24;76.95;101411.66;4987226;28;20026;-65
2022/07/26 05:38:24;;;;;;;18.00;6.90;;;;;;;18.22;77.05;101414.31;4987013;28;20041;-65
2022/07/26 05:40:50;;;;;;;14.63;6.82;;;;;;;18.19;77.54;101411.66;4968897;28;20099;-65
2022/07/26 05:43:15;;;;;;;13.77;6.53;;;;;;;18.19;77.96;101419.59;4985028;28;20038;-65
2022/07/26 05:45:41;;;;;;;19.65;7.93;;;;;;;18.22;76.96;101418.72;4987387;28;20045;-65
2022/07/26 05:48:06;;;;;;;16.63;6.72;;;;;;;18.25;76.91;101413.44;4989817;28;20037;-65
2022/07/26 05:50:31;;;;;;;18.90;7.57;;;;;;;18.27;76.79;101419.59;4989067;28;20058;-65
2022/07/26 05:52:57;;;;;;;16.00;6.90;;;;;;;18.31;76.27;101428.41;4988435;28;20032;-65
2022/07/26 05:55:22;;;;;;;16.60;7.20;;;;;;;18.32;76.11;101431.03;4986049;28;20076;-65
2022/07/26 05:57:47;;;;;;;16.02;7.65;;;;;;;18.34;76.46;101431.03;4984620;28;20069;-65
2022/07/26 06:00:14;;;;;;;16.42;8.00;;;;;;;18.33;76.63;101431.91;4985228;28;20433;-65
2022/07/26 06:02:39;;;;;;;14.80;7.50;;;;;;;18.37;75.98;101434.53;4986350;28;20062;-65
2022/07/26 06:05:05;;;;;;;15.65;8.00;;;;;;;18.36;76.45;101437.19;4988350;28;20038;-65
2022/07/26 06:07:31;;;;;;;15.32;7.15;;;;;;;18.38;77.12;101438.94;4967734;28;20038;-65
2022/07/26 06:09:56;;;;;;;16.02;7.50;;;;;;;18.44;76.44;101438.06;4988342;28;20026;-65
2022/07/26 06:12:21;;;;;;;12.15;6.55;;;;;;;18.47;75.97;101431.91;4987343;28;20393;-65
2022/07/26 06:14:47;;;;;;;14.20;6.68;;;;;;;18.49;76.12;101436.28;4989389;28;20895;-65
2022/07/26 06:17:12;;;;;;;17.35;7.38;;;;;;;18.50;76.40;101435.44;4986620;28;20026;-65
2022/07/26 06:19:37;;;;;;;14.90;6.97;;;;;;;18.55;75.81;101444.25;4987506;28;20482;-65
2022/07/26 06:22:03;;;;;;;15.23;6.88;;;;;;;18.57;75.78;101441.59;4988588;28;20071;-65
2022/07/26 06:24:28;;;;;;;15.43;7.53;;;;;;;18.60;76.09;101447.75;4989301;28;20040;-65
2022/07/26 06:26:55;;;;;;;14.15;6.88;;;;;;;18.67;75.43;101446.00;4986239;28;20083;-65
2022/07/26 06:29:21;;;;;;;14.55;7.45;;;;;;;18.69;75.54;101449.50;4985864;28;20034;-65
2022/07/26 06:31:47;;;;;;;12.85;6.82;;;;;;;18.76;76.04;101447.75;4984933;28;20109;-65
2022/07/26 06:34:12;;;;;;;13.25;7.40;;;;;;;18.81;74.62;101448.59;4987121;28;20156;-65
2022/07/26 06:36:37;;;;;;;13.68;6.57;;;;;;;18.86;74.92;101444.25;4989416;28;20770;-65
2022/07/26 06:39:03;;;;;;;13.40;7.32;;;;;;;18.91;75.00;101453.03;4989744;28;20693;-65
2022/07/26 06:41:28;;;;;;;15.77;7.65;;;;;;;18.97;74.21;101452.13;4989660;28;20042;-65
2022/07/26 06:43:53;;;;;;;16.85;7.28;;;;;;;19.00;73.71;101453.91;4988897;28;20026;-65
2022/07/26 06:46:20;;;;;;;13.32;6.97;;;;;;;19.05;74.15;101454.78;4991652;28;20397;-65
2022/07/26 06:48:46;;;;;;;11.95;6.13;;;;;;;19.14;73.06;101456.53;4992642;28;20532;-65
2022/07/26 06:51:11;;;;;;;14.57;6.80;;;;;;;19.14;72.51;101457.41;4988240;28;20034;-66
2022/07/26 06:53:37;;;;;;;13.60;6.97;;;;;;;19.17;72.79;101465.31;4991465;28;20072;-65
2022/07/26 06:56:03;;;;;;;13.50;6.57;;;;;;;19.18;72.83;101466.22;4966102;28;20061;-65
2022/07/26 06:58:28;;;;;;;13.10;6.72;;;;;;;19.23;73.01;101462.69;4991549;28;20117;-65
2022/07/26 07:00:53;;;;;;;10.15;5.82;;;;;;;19.26;72.97;101469.69;4992111;28;20038;-65
2022/07/26 07:03:19;;;;;;;10.05;5.80;;;;;;;19.30;72.66;101468.81;4986816;28;20076;-65
2022/07/26 07:05:45;;;;;;;14.15;6.32;;;;;;;19.40;73.04;101472.31;4991220;28;20157;-66
2022/07/26 07:08:11;;;;;;;13.77;6.30;;;;;;;19.43;71.76;101478.47;4988354;28;20030;-60
2022/07/26 07:10:36;;;;;;;10.20;6.05;;;;;;;19.42;71.07;101471.44;4990786;28;20037;-60
2022/07/26 07:13:01;;;;;;;14.50;6.50;;;;;;;19.45;71.47;101486.38;4990325;28;20049;-60
2022/07/26 07:15:27;;;;;;;11.60;5.57;;;;;;;19.46;71.04;101480.22;4982704;28;20042;-60
2022/07/26 07:17:52;;;;;;;11.00;5.13;;;;;;;19.48;70.26;101485.50;4988556;28;20030;-60
2022/07/26 07:20:18;;;;;;;11.43;4.45;;;;;;;19.50;69.99;101486.38;4992488;28;20569;-60
2022/07/26 07:22:43;;;;;;;8.73;4.65;;;;;;;19.51;69.67;101485.47;4989179;28;20034;-60
2022/07/26 07:25:08;;;;;;;13.70;4.70;;;;;;;19.49;68.97;101472.28;4985986;28;20037;-59
2022/07/26 07:27:34;;;;;;;8.88;4.50;;;;;;;19.52;69.13;101482.84;4983476;28;20030;-60
2022/07/26 07:29:59;;;;;;;9.68;4.55;;;;;;;19.56;70.37;101483.72;4984383;28;20564;-59
2022/07/26 07:32:24;;;;;;;10.77;5.32;;;;;;;19.58;70.40;101489.88;4984244;28;20640;-59
2022/07/26 07:34:50;;;;;;;9.90;4.72;;;;;;;19.61;68.97;101482.81;4984071;28;20076;-59
2022/07/26 07:37:16;;;;;;;9.07;4.30;;;;;;;19.63;68.89;101490.75;4980665;28;20120;-59
2022/07/26 07:39:42;;;;;;;7.95;4.15;;;;;;;19.68;69.59;101488.06;4981869;28;20124;-60
2022/07/26 07:42:07;;;;;;;9.57;4.00;;;;;;;19.73;68.93;101484.53;4981342;28;20026;-59
2022/07/26 07:44:32;;;;;;;8.25;3.95;;;;;;;19.74;67.69;101488.03;4983670;28;20034;-60
2022/07/26 07:46:58;;;;;;;9.77;4.32;;;;;;;19.75;68.12;101490.69;4989966;28;20025;-59
2022/07/26 07:49:23;;;;;;;8.35;4.30;;;;;;;19.77;68.63;101493.34;4991638;28;20030;-60
2022/07/26 07:51:48;;;;;;;6.97;3.90;;;;;;;19.81;69.86;101489.81;4990631;28;20033;-59
2022/07/26 07:54:14;;;;;;;12.10;4.03;;;;;;;19.86;69.15;101498.63;4987048;28;20377;-60
2022/07/26 07:56:41;;;;;;;8.20;4.05;;;;;;;19.89;68.75;101498.59;4980340;28;20026;-59
2022/07/26 07:59:06;;;;;;;8.48;3.85;;;;;;;19.90;68.78;101492.44;4982821;28;20040;-60
2022/07/26 08:01:31;;;;;;;9.15;4.30;;;;;;;19.95;69.16;101493.28;4965250;28;20034;-59
2022/07/26 08:03:57;;;;;;;8.60;4.90;;;;;;;20.04;69.60;101494.13;4983060;28;20101;-59
2022/07/26 08:06:22;;;;;;;10.48;5.28;;;;;;;20.07;68.71;101492.31;4986534;28;20109;-59
2022/07/26 08:08:47;;;;;;;9.25;5.18;;;;;;;20.08;68.54;101496.75;4989558;28;20030;-59
2022/07/26 08:11:13;;;;;;;11.15;5.03;;;;;;;20.08;69.61;101509.09;4986336;28;20053;-59
2022/07/26 08:13:38;;;;;;;8.43;4.40;;;;;;;20.08;69.21;101506.44;4989137;28;20652;-59
2022/07/26 08:16:04;;;;;;;7.15;2.90;;;;;;;20.05;69.11;101514.41;4987806;28;20105;-59
2022/07/26 08:18:29;;;;;;;3.50;2.13;;;;;;;20.04;69.18;101518.78;4986290;28;20105;-64
2022/07/26 08:20:54;;;;;;;5.30;1.80;;;;;;;20.00;68.96;101521.47;4985244;28;20449;-64
2022/07/26 08:23:20;;;;;;;3.42;1.90;;;;;;;19.99;69.43;101520.59;4985869;28;20026;-64
2022/07/26 08:25:46;;;;;;;3.50;1.60;;;;;;;19.96;69.91;101531.22;4984479;28;20460;-65
2022/07/26 08:28:11;;;;;;;2.42;1.40;;;;;;;19.97;70.38;101531.19;4981624;28;20034;-65
2022/07/26 08:30:37;;;;;;;3.40;1.67;;;;;;;19.96;70.98;101532.06;4983047;28;20875;-64
2022/07/26 08:33:02;;;;;;;2.90;1.50;;;;;;;19.98;71.08;101529.41;4987363;28;20398;-64
2022/07/26 08:35:28;;;;;;;3.92;1.65;;;;;;;20.01;70.32;101533.81;4986337;28;20022;-65
2022/07/26 08:37:54;;;;;;;4.80;1.52;;;;;;;20.02;72.03;101541.75;4985049;28;20121;-65
2022/07/26 08:40:19;;;;;;;2.28;1.20;;;;;;;20.02;72.17;101547.03;4983658;28;20096;-64
2022/07/26 08:42:52;;;;;;;6.20;1.13;;;;;;;20.07;72.03;101554.94;4988199;28;20027;-64
2022/07/26 08:45:22;;;;;;;2.72;1.00;;;;;;;20.11;71.65;101556.69;4984381;28;20037;-65
2022/07/26 08:47:47;;;;;;;3.35;1.23;;;;;;;20.20;72.63;101550.47;4989730;28;20077;-64
2022/07/26 08:50:12;;;;;;;2.50;0.90;;;;;;;20.28;72.15;101549.56;4987013;28;20038;-64
2022/07/26 08:52:41;;;;;;;2.10;1.00;;;;;;;20.36;71.54;101548.63;4981596;28;20030;-65
2022/07/26 08:55:06;;;;;;;2.20;1.05;;;;;;;20.41;71.00;101547.72;4983329;28;20030;-64
2022/07/26 08:57:32;;;;;;;3.88;1.23;;;;;;;20.52;73.10;101547.63;4983583;28;20044;-65
2022/07/26 09:00:18;;;;;;;1.95;1.17;;;;;;;20.61;71.04;101554.63;4981996;28;20113;-64
2022/07/26 09:02:45;;;;;;;4.07;1.40;;;;;;;20.60;69.47;101558.19;4980878;28;20033;-64
2022/07/26 09:05:11;;;;;;;3.58;1.30;;;;;;;20.60;69.63;101556.41;4980648;28;20030;-64
2022/07/26 09:07:38;;;;;;;3.15;1.45;;;;;;;20.62;69.01;101564.34;4981547;28;20112;-64
2022/07/26 09:10:08;;;;;;;2.17;1.23;;;;;;;20.67;71.07;101566.13;4986160;28;20064;-63
2022/07/26 09:12:35;;;;;;;4.10;1.70;;;;;;;20.78;70.82;101566.06;4988377;28;20088;-63
2022/07/26 09:15:02;;;;;;;3.38;1.50;;;;;;;20.80;68.96;101566.03;4989477;28;20097;-63
2022/07/26 09:17:49;;;;;;;4.07;1.88;;;;;;;20.79;68.10;101567.78;4989089;28;20028;-63
2022/07/26 09:20:19;;;;;;;3.72;1.50;;;;;;;20.76;67.83;101565.16;4981047;28;20046;-63
2022/07/26 09:22:57;;;;;;;3.13;1.38;;;;;;;20.75;68.73;101570.47;4990338;28;20466;-63
2022/07/26 09:25:24;;;;;;;6.28;1.40;;;;;;;20.75;69.26;101578.44;4989620;28;20042;-63
2022/07/26 09:27:50;;;;;;;4.28;1.60;;;;;;;20.75;67.88;101583.72;4990168;28;20030;-63
2022/07/26 09:30:15;;;;;;;3.78;1.58;;;;;;;20.74;68.44;101580.22;4990161;28;20022;-63
2022/07/26 09:33:04;;;;;;;4.50;1.80;;;;;;;20.76;68.19;101582.84;4986310;28;20015;-63
2022/07/26 09:35:32;;;;;;;;;;;;;;;20.82;68.01;101588.09;4984826;28;20048;-63
2022/07/26 09:37:58;;;;;;;5.20;1.90;;;;;;;20.79;66.60;101588.97;4990398;28;19910;-63
2022/07/26 09:40:30;;;;;;;3.58;2.08;;;;;;;20.79;67.10;101593.41;4989211;28;20046;-63
2022/07/26 09:43:02;;;;;;;4.93;2.03;;;;;;;20.80;67.40;101587.22;4990718;28;20493;-63
2022/07/26 09:45:29;;;;;;;6.72;2.20;;;;;;;20.81;66.66;101592.53;4987194;28;20088;-63
2022/07/26 09:47:55;;;;;;;4.93;1.90;;;;;;;20.80;66.68;101588.09;4990804;28;20018;-63
2022/07/26 09:50:26;;;;;;;5.95;1.90;;;;;;;20.80;67.17;101595.19;4989594;28;20026;-64
2022/07/26 09:53:02;;;;;;;7.03;2.10;;;;;;;20.82;68.20;101596.03;4979515;28;20022;-64
2022/07/26 09:55:29;;;;;;;4.88;2.08;;;;;;;20.84;67.86;101594.25;4988702;28;20555;-63
2022/07/26 09:57:54;;;;;;;6.15;1.80;;;;;;;20.87;67.93;101596.91;4985157;28;20073;-68
2022/07/26 10:00:20;;;;;;;4.95;1.88;;;;;;;20.88;67.89;101597.75;4979275;28;20105;-65
2022/07/26 10:02:45;;;;;;;5.72;2.28;;;;;;;20.89;66.38;101605.69;4985678;28;20059;-65
2022/07/26 10:05:10;;;;;;;5.55;1.98;;;;;;;20.88;66.30;101608.34;4983596;28;20046;-65
2022/07/26 10:07:37;;;;;;;5.28;1.98;;;;;;;20.88;67.31;101619.81;4983526;28;20026;-65
2022/07/26 10:10:07;;;;;;;3.80;1.45;;;;;;;20.99;67.57;101612.69;4980822;28;20117;-65
2022/07/26 10:12:33;;;;;;;3.28;1.10;;;;;;;21.02;66.45;101615.31;4985293;28;20030;-65
2022/07/26 10:14:59;;;;;;;3.90;1.17;;;;;;;21.09;65.46;101616.16;4982587;28;20100;-66
2022/07/26 10:17:28;;;;;;;2.13;0.95;;;;;;;21.12;64.87;101617.91;4990252;28;20494;-64
2022/07/26 10:20:08;;;;;;;2.38;1.10;;;;;;;21.13;65.50;101619.63;4994852;28;20026;-64
2022/07/26 10:22:42;;;;;;;3.80;1.15;;;;;;;21.17;64.68;101624.03;4989040;28;20042;-63
2022/07/26 10:25:16;;;;;;;3.53;1.20;;;;;;;21.17;65.10;101622.28;4993333;28;20109;-64
2022/07/26 10:27:53;;;;;;;2.63;1.13;;;;;;;21.15;64.56;101626.69;4994098;28;20105;-64
2022/07/26 10:30:18;;;;;;;1.90;0.88;;;;;;;21.16;64.36;101632.88;4993909;28;20080;-64
2022/07/26 10:32:50;;;;;;;1.85;0.80;;;;;;;21.13;63.70;101631.16;4994183;28;20022;-64
2022/07/26 10:35:33;;;;;;;2.63;0.90;;;;;;;21.12;64.09;101633.81;4994341;28;20034;-64
2022/07/26 10:38:01;;;;;;;3.08;0.90;;;;;;;21.09;62.65;101632.06;4992828;28;20026;-64
2022/07/26 10:40:30;;;;;;;2.33;1.10;;;;;;;21.09;63.26;101639.13;4993846;28;20520;-64
2022/07/26 10:43:14;;;;;;;2.95;1.40;;;;;;;21.09;63.92;101636.47;4993938;28;20466;-64
2022/07/26 10:45:40;;;;;;;5.30;1.10;;;;;;;21.11;63.39;101637.34;4992607;28;20027;-64
2022/07/26 10:48:17;;;;;;;2.63;0.82;;;;;;;21.17;64.13;101638.19;4993915;28;20022;-64
2022/07/26 10:50:48;;;;;;;2.47;0.93;;;;;;;21.17;63.32;101642.59;4993908;28;20034;-64
2022/07/26 10:53:33;;;;;;;1.98;0.80;;;;;;;21.24;63.36;101641.66;4989071;28;20026;-64
2022/07/26 10:56:00;;;;;;;2.60;0.90;;;;;;;21.25;63.55;101647.84;4993655;28;20432;-64
2022/07/26 10:58:26;;;;;;;3.50;1.30;;;;;;;21.27;63.92;101649.56;4992985;28;20054;-64
2022/07/26 11:00:57;;;;;;;3.53;1.00;;;;;;;21.29;64.63;101661.06;4992010;28;20079;-64
2022/07/26 11:03:23;;;;;;;3.85;1.27;;;;;;;21.33;64.30;101660.16;4993290;28;20612;-64
2022/07/26 11:05:49;;;;;;;5.32;1.20;;;;;;;21.34;62.66;101650.41;4992457;28;20022;-64
2022/07/26 11:08:15;;;;;;;3.17;1.27;;;;;;;21.35;63.08;101663.66;4992596;28;20175;-64
2022/07/26 11:10:46;;;;;;;2.40;1.10;;;;;;;21.36;63.48;101662.78;4993239;28;20409;-64
2022/07/26 11:13:20;;;;;;;2.72;1.13;;;;;;;21.37;63.62;101667.16;4992151;28;20033;-64
2022/07/26 11:15:59;;;;;;;3.15;1.17;;;;;;;21.36;63.52;101668.06;4992793;28;20026;-64
2022/07/26 11:18:29;;;;;;;3.72;1.63;;;;;;;21.31;63.72;101674.31;4991711;28;20037;-64
2022/07/26 11:20:57;;;;;;;5.35;1.90;;;;;;;21.27;66.95;101685.81;4992610;28;20034;-64
2022/07/26 11:23:31;;;;;;;5.07;1.90;;;;;;;21.21;68.44;101686.72;4991513;28;20034;-64